HEMAHEBL

Guest
Details From HEMA - MARSA ALAM INTL
To HEBL - ABU SIMBEL
Flight Number -
Tags generated
Created
Modified
Stats Distance 280 nm / 519 km
Max Altitude 34,000 ft / 10,363 m
Waypoints 5
Social Downloads 0
Likes 0
Share VATSIM

Download

Looking for another format? Having issues loading an existing format? Contact us
Advertisement - Login to hide

Notes

Basic altitude profile: - Ascent Rate: 2500ft/min - Ascent Speed: 250kts - Cruise Altitude: 35000ft - Cruise Speed: 420kts - Descent Rate: 1500ft/min - Descent Speed: 250kts Options: - Use NATs: yes - Use PACOTS: yes - Use low airways: yes - Use high airways: no

Route

HEMA GETOS BOVAR A727 LOPID HEBL

ID Type Via Altitude Latitude Longitude Leg Dist Tot Dist Heading (true) Name
O HEMA APT - 0 ft / 0 m 25.55711˚ 34.58371˚ - 0 nm - MARSA ALAM INTL
GETOS FIX - 34,000 ft / 10,363 m 25.13361˚ 32.78500˚ 100 nm 100 nm 256° / 255° -
BOVAR FIX - 30,200 ft / 9,205 m 24.69444˚ 32.40528˚ 33 nm 134 nm 218° / 218° -
LOPID FIX A727 (AWY-LO) 12,600 ft / 3,840 m 23.31667˚ 31.92500˚ 86 nm 221 nm 198° / 198° -
O HEBL APT - 0 ft / 0 m 22.37595˚ 31.61172˚ 59 nm 280 nm 197° / 197° ABU SIMBEL

Altitude Profile

Advertisement - Login to hide

Weather


0- 5 10 15 20 25 30 35+ Temperature / ° C

Clouds and Precipitation
Forecast for 2017-12-11 12:00 UTC. Updated 36 minutes ago

Ground ~20,000 ft ~40,000 ft Winds

HEMA

Details ICAO HEMA (RMF)
Name MARSA ALAM INTL
Region Egypt
Timezone Africa/Cairo (UTC+2.0)
Stats Elevation 251 ft / 77 m (AMSL)
Location 25.557113° 34.583711°
Runways 1
Magnetic Variation 4.074° E

METAR

HEMA 110700Z 32014KT CAVOK 22/13 Q1020 NOSIG

Decode

TAF

Not found

Departure Runways

ID Width Length Bearing (true) Bearing (mag) Surface Threshold Offset Overrun Length
15 148 ft / 45 m 9,875 ft / 3,010 m 149.89° 145.82° Asphalt 0 ft / 0 m 295 ft / 90 m
33 148 ft / 45 m 9,875 ft / 3,010 m 329.90° 325.83° Asphalt 0 ft / 0 m 295 ft / 90 m

HEBL

Details ICAO HEBL (ABS)
Name ABU SIMBEL
Region Egypt
Timezone Africa/Cairo (UTC+2.0)
Stats Elevation 616 ft / 188 m (AMSL)
Location 22.375951° 31.611721°
Runways 1
Magnetic Variation 3.833° E

METAR

HEBL 110700Z 08008KT CAVOK 22/14 Q1017 NOSIG

Decode

TAF

Not found

Destination Runways

ID Width Length Bearing (true) Bearing (mag) Surface Threshold Offset Overrun Length
15 148 ft / 45 m 9,873 ft / 3,009 m 150.09° 146.26° Asphalt 0 ft / 0 m 197 ft / 60 m
33 148 ft / 45 m 9,873 ft / 3,009 m 330.10° 326.27° Asphalt 0 ft / 0 m 197 ft / 60 m

Approach Navaids

Runway Type Ident Frequency Range Bearing (true) Bearing (mag) Slope Elevation
33 Localiser IABS 109.70 MHz 18 nm / 33 km 330.11° 326.28° - 623 ft / 190 m (AMSL)
33 Glidescope IABS 109.70 MHz 10 nm / 19 km 330.10° 326.26° 3.00° 670 ft / 204 m (AMSL)
33 DME IABS 109.70 MHz 18 nm / 33 km - - - 670 ft / 204 m (AMSL)

Popular Alternatives